sensor_id;sensor_type;location;lat;lon;timestamp;temperature;humidity
15239;DHT22;7722;53.274;9.500;2023-10-31T00:00:49;11.60;99.90
15239;DHT22;7722;53.274;9.500;2023-10-31T00:03:17;11.70;99.90
15239;DHT22;7722;53.274;9.500;2023-10-31T00:05:45;11.70;99.90
15239;DHT22;7722;53.274;9.500;2023-10-31T00:08:12;11.80;99.90
15239;DHT22;7722;53.274;9.500;2023-10-31T00:10:39;11.70;99.90
15239;DHT22;7722;53.274;9.500;2023-10-31T00:13:10;11.80;99.90
15239;DHT22;7722;53.274;9.500;2023-10-31T00:15:37;11.70;99.90
15239;DHT22;7722;53.274;9.500;2023-10-31T00:18:04;11.80;99.90
15239;DHT22;7722;53.274;9.500;2023-10-31T00:20:33;11.80;99.90
15239;DHT22;7722;53.274;9.500;2023-10-31T00:23:02;11.90;99.90
15239;DHT22;7722;53.274;9.500;2023-10-31T00:25:29;11.80;99.90
15239;DHT22;7722;53.274;9.500;2023-10-31T00:27:56;11.70;99.90
15239;DHT22;7722;53.274;9.500;2023-10-31T00:30:23;11.90;99.90
15239;DHT22;7722;53.274;9.500;2023-10-31T00:32:50;12.00;99.90
15239;DHT22;7722;53.274;9.500;2023-10-31T00:35:17;11.80;99.90
15239;DHT22;7722;53.274;9.500;2023-10-31T00:37:44;11.90;99.90
15239;DHT22;7722;53.274;9.500;2023-10-31T00:40:13;11.70;99.90
15239;DHT22;7722;53.274;9.500;2023-10-31T00:42:42;11.80;99.90
15239;DHT22;7722;53.274;9.500;2023-10-31T00:45:09;11.80;99.90
15239;DHT22;7722;53.274;9.500;2023-10-31T00:47:36;11.90;99.90
15239;DHT22;7722;53.274;9.500;2023-10-31T00:50:04;11.80;99.90
15239;DHT22;7722;53.274;9.500;2023-10-31T00:52:31;11.90;99.90
15239;DHT22;7722;53.274;9.500;2023-10-31T00:54:58;11.80;99.90
15239;DHT22;7722;53.274;9.500;2023-10-31T00:57:26;11.80;99.90
15239;DHT22;7722;53.274;9.500;2023-10-31T00:59:53;12.00;99.90
15239;DHT22;7722;53.274;9.500;2023-10-31T01:02:20;11.80;99.90
15239;DHT22;7722;53.274;9.500;2023-10-31T01:04:47;11.90;99.90
15239;DHT22;7722;53.274;9.500;2023-10-31T01:07:14;11.80;99.90
15239;DHT22;7722;53.274;9.500;2023-10-31T01:09:42;11.80;99.90
15239;DHT22;7722;53.274;9.500;2023-10-31T01:12:10;11.80;99.90
15239;DHT22;7722;53.274;9.500;2023-10-31T01:14:39;11.80;99.90
15239;DHT22;7722;53.274;9.500;2023-10-31T01:17:06;11.80;99.90
15239;DHT22;7722;53.274;9.500;2023-10-31T01:19:33;11.80;99.90
15239;DHT22;7722;53.274;9.500;2023-10-31T01:22:00;11.80;99.90
15239;DHT22;7722;53.274;9.500;2023-10-31T01:24:27;11.90;99.90
15239;DHT22;7722;53.274;9.500;2023-10-31T01:26:54;11.90;99.90
15239;DHT22;7722;53.274;9.500;2023-10-31T01:29:21;11.80;99.90
15239;DHT22;7722;53.274;9.500;2023-10-31T01:31:50;11.80;99.90
15239;DHT22;7722;53.274;9.500;2023-10-31T01:34:17;11.90;99.90
15239;DHT22;7722;53.274;9.500;2023-10-31T01:36:44;11.70;99.90
15239;DHT22;7722;53.274;9.500;2023-10-31T01:39:11;11.90;99.90
15239;DHT22;7722;53.274;9.500;2023-10-31T01:41:41;11.80;99.90
15239;DHT22;7722;53.274;9.500;2023-10-31T01:44:08;11.90;99.90
15239;DHT22;7722;53.274;9.500;2023-10-31T01:46:35;11.90;99.90
15239;DHT22;7722;53.274;9.500;2023-10-31T01:49:03;11.80;99.90
15239;DHT22;7722;53.274;9.500;2023-10-31T01:51:31;11.70;99.90
15239;DHT22;7722;53.274;9.500;2023-10-31T01:53:58;11.80;99.90
15239;DHT22;7722;53.274;9.500;2023-10-31T01:56:25;11.70;99.90
15239;DHT22;7722;53.274;9.500;2023-10-31T01:58:53;11.90;99.90
15239;DHT22;7722;53.274;9.500;2023-10-31T02:01:20;11.80;99.90
15239;DHT22;7722;53.274;9.500;2023-10-31T02:03:47;11.80;99.90
15239;DHT22;7722;53.274;9.500;2023-10-31T02:06:16;11.70;99.90
15239;DHT22;7722;53.274;9.500;2023-10-31T02:08:43;11.80;99.90
15239;DHT22;7722;53.274;9.500;2023-10-31T02:11:10;11.80;99.90
15239;DHT22;7722;53.274;9.500;2023-10-31T02:13:37;11.70;99.90
15239;DHT22;7722;53.274;9.500;2023-10-31T02:16:04;11.80;99.90
15239;DHT22;7722;53.274;9.500;2023-10-31T02:18:32;11.80;99.90
15239;DHT22;7722;53.274;9.500;2023-10-31T02:20:59;11.70;99.90
15239;DHT22;7722;53.274;9.500;2023-10-31T02:23:27;11.90;99.90
15239;DHT22;7722;53.274;9.500;2023-10-31T02:25:54;11.90;99.90
15239;DHT22;7722;53.274;9.500;2023-10-31T02:28:21;11.90;99.90
15239;DHT22;7722;53.274;9.500;2023-10-31T02:30:53;11.70;99.90
15239;DHT22;7722;53.274;9.500;2023-10-31T02:33:20;11.90;99.90
15239;DHT22;7722;53.274;9.500;2023-10-31T02:35:47;11.70;99.90
15239;DHT22;7722;53.274;9.500;2023-10-31T02:38:14;11.90;99.90
15239;DHT22;7722;53.274;9.500;2023-10-31T02:40:43;11.80;99.90
15239;DHT22;7722;53.274;9.500;2023-10-31T02:43:10;11.90;99.90
15239;DHT22;7722;53.274;9.500;2023-10-31T02:45:37;11.90;99.90
15239;DHT22;7722;53.274;9.500;2023-10-31T02:48:04;11.70;99.90
15239;DHT22;7722;53.274;9.500;2023-10-31T02:50:31;11.80;99.90
15239;DHT22;7722;53.274;9.500;2023-10-31T02:52:58;11.80;99.90
15239;DHT22;7722;53.274;9.500;2023-10-31T02:55:25;11.70;99.90
15239;DHT22;7722;53.274;9.500;2023-10-31T02:57:54;11.80;99.90
15239;DHT22;7722;53.274;9.500;2023-10-31T03:00:21;11.90;99.90
15239;DHT22;7722;53.274;9.500;2023-10-31T03:02:48;11.80;99.90
15239;DHT22;7722;53.274;9.500;2023-10-31T03:05:15;12.00;99.90
15239;DHT22;7722;53.274;9.500;2023-10-31T03:07:42;12.00;99.90
15239;DHT22;7722;53.274;9.500;2023-10-31T03:10:10;12.00;99.90
15239;DHT22;7722;53.274;9.500;2023-10-31T03:12:37;11.90;99.90
15239;DHT22;7722;53.274;9.500;2023-10-31T03:15:07;11.90;99.90
15239;DHT22;7722;53.274;9.500;2023-10-31T03:17:34;11.80;99.90
15239;DHT22;7722;53.274;9.500;2023-10-31T03:20:01;12.00;99.90
15239;DHT22;7722;53.274;9.500;2023-10-31T03:22:29;12.00;99.90
15239;DHT22;7722;53.274;9.500;2023-10-31T03:24:56;11.80;99.90
15239;DHT22;7722;53.274;9.500;2023-10-31T03:27:23;11.80;99.90
15239;DHT22;7722;53.274;9.500;2023-10-31T03:29:50;12.00;99.90
15239;DHT22;7722;53.274;9.500;2023-10-31T03:32:18;12.00;99.90
15239;DHT22;7722;53.274;9.500;2023-10-31T03:34:45;12.00;99.90
15239;DHT22;7722;53.274;9.500;2023-10-31T03:37:12;11.80;99.90
15239;DHT22;7722;53.274;9.500;2023-10-31T03:39:39;12.00;99.90
15239;DHT22;7722;53.274;9.500;2023-10-31T03:42:06;12.00;99.90
15239;DHT22;7722;53.274;9.500;2023-10-31T03:44:33;11.80;99.90
15239;DHT22;7722;53.274;9.500;2023-10-31T03:47:00;12.00;99.90
15239;DHT22;7722;53.274;9.500;2023-10-31T03:49:29;11.90;99.90
15239;DHT22;7722;53.274;9.500;2023-10-31T03:51:56;12.00;99.90
15239;DHT22;7722;53.274;9.500;2023-10-31T03:54:23;12.00;99.90
15239;DHT22;7722;53.274;9.500;2023-10-31T03:56:50;12.10;99.90
15239;DHT22;7722;53.274;9.500;2023-10-31T03:59:17;12.10;99.90
15239;DHT22;7722;53.274;9.500;2023-10-31T04:01:44;11.90;99.90
15239;DHT22;7722;53.274;9.500;2023-10-31T04:04:11;12.10;99.90
15239;DHT22;7722;53.274;9.500;2023-10-31T04:06:39;11.90;99.90
15239;DHT22;7722;53.274;9.500;2023-10-31T04:09:07;11.90;99.90
15239;DHT22;7722;53.274;9.500;2023-10-31T04:11:35;11.90;99.90
15239;DHT22;7722;53.274;9.500;2023-10-31T04:14:03;11.90;99.90
15239;DHT22;7722;53.274;9.500;2023-10-31T04:16:31;12.00;99.90
15239;DHT22;7722;53.274;9.500;2023-10-31T04:18:58;11.90;99.90
15239;DHT22;7722;53.274;9.500;2023-10-31T04:21:25;12.10;99.90
15239;DHT22;7722;53.274;9.500;2023-10-31T04:23:53;12.10;99.90
15239;DHT22;7722;53.274;9.500;2023-10-31T04:26:20;11.90;99.90
15239;DHT22;7722;53.274;9.500;2023-10-31T04:28:47;11.90;99.90
15239;DHT22;7722;53.274;9.500;2023-10-31T04:31:14;11.90;99.90
15239;DHT22;7722;53.274;9.500;2023-10-31T04:33:42;11.90;99.90
15239;DHT22;7722;53.274;9.500;2023-10-31T04:36:09;12.10;99.90
15239;DHT22;7722;53.274;9.500;2023-10-31T04:38:37;12.10;99.90
15239;DHT22;7722;53.274;9.500;2023-10-31T04:41:07;12.10;99.90
15239;DHT22;7722;53.274;9.500;2023-10-31T04:43:35;12.10;99.90
15239;DHT22;7722;53.274;9.500;2023-10-31T04:46:02;12.20;99.90
15239;DHT22;7722;53.274;9.500;2023-10-31T04:48:29;12.10;99.90
15239;DHT22;7722;53.274;9.500;2023-10-31T04:50:58;12.00;99.90
15239;DHT22;7722;53.274;9.500;2023-10-31T04:53:25;11.90;99.90
15239;DHT22;7722;53.274;9.500;2023-10-31T04:55:52;12.10;99.90
15239;DHT22;7722;53.274;9.500;2023-10-31T04:58:20;12.00;99.90
15239;DHT22;7722;53.274;9.500;2023-10-31T05:00:47;12.20;99.90
15239;DHT22;7722;53.274;9.500;2023-10-31T05:03:14;12.10;99.90
15239;DHT22;7722;53.274;9.500;2023-10-31T05:05:41;11.90;99.90
15239;DHT22;7722;53.274;9.500;2023-10-31T05:08:08;12.00;99.90
15239;DHT22;7722;53.274;9.500;2023-10-31T05:10:35;12.00;99.90
15239;DHT22;7722;53.274;9.500;2023-10-31T05:13:02;12.10;99.90
15239;DHT22;7722;53.274;9.500;2023-10-31T05:15:31;11.90;99.90
15239;DHT22;7722;53.274;9.500;2023-10-31T05:17:58;11.90;99.90
15239;DHT22;7722;53.274;9.500;2023-10-31T05:20:25;12.00;99.90
15239;DHT22;7722;53.274;9.500;2023-10-31T05:22:52;11.80;99.90
15239;DHT22;7722;53.274;9.500;2023-10-31T05:25:19;11.90;99.90
15239;DHT22;7722;53.274;9.500;2023-10-31T05:27:46;11.90;99.90
15239;DHT22;7722;53.274;9.500;2023-10-31T05:30:14;11.90;99.90
15239;DHT22;7722;53.274;9.500;2023-10-31T05:32:42;12.00;99.90
15239;DHT22;7722;53.274;9.500;2023-10-31T05:35:10;11.80;99.90
15239;DHT22;7722;53.274;9.500;2023-10-31T05:37:37;11.80;99.90
15239;DHT22;7722;53.274;9.500;2023-10-31T05:40:05;12.00;99.90
15239;DHT22;7722;53.274;9.500;2023-10-31T05:42:32;11.90;99.90
15239;DHT22;7722;53.274;9.500;2023-10-31T05:44:59;12.10;99.90
15239;DHT22;7722;53.274;9.500;2023-10-31T05:47:27;12.10;99.90
15239;DHT22;7722;53.274;9.500;2023-10-31T05:49:56;12.10;99.90
15239;DHT22;7722;53.274;9.500;2023-10-31T05:52:23;12.20;99.90
15239;DHT22;7722;53.274;9.500;2023-10-31T05:54:54;12.20;99.90
15239;DHT22;7722;53.274;9.500;2023-10-31T05:57:22;12.00;99.90
15239;DHT22;7722;53.274;9.500;2023-10-31T05:59:49;11.90;99.90
15239;DHT22;7722;53.274;9.500;2023-10-31T06:02:17;12.20;99.90
15239;DHT22;7722;53.274;9.500;2023-10-31T06:04:44;12.00;99.90
15239;DHT22;7722;53.274;9.500;2023-10-31T06:07:13;11.90;99.90
15239;DHT22;7722;53.274;9.500;2023-10-31T06:09:41;12.00;99.90
15239;DHT22;7722;53.274;9.500;2023-10-31T06:12:08;12.20;99.90
15239;DHT22;7722;53.274;9.500;2023-10-31T06:14:35;12.00;99.90
15239;DHT22;7722;53.274;9.500;2023-10-31T06:17:02;12.10;99.90
15239;DHT22;7722;53.274;9.500;2023-10-31T06:19:33;11.90;99.90
15239;DHT22;7722;53.274;9.500;2023-10-31T06:22:00;12.10;99.90
15239;DHT22;7722;53.274;9.500;2023-10-31T06:24:29;12.00;99.90
15239;DHT22;7722;53.274;9.500;2023-10-31T06:26:56;11.90;99.90
15239;DHT22;7722;53.274;9.500;2023-10-31T06:29:23;11.90;99.90
15239;DHT22;7722;53.274;9.500;2023-10-31T06:31:50;11.80;99.90
15239;DHT22;7722;53.274;9.500;2023-10-31T06:34:17;11.80;99.90
15239;DHT22;7722;53.274;9.500;2023-10-31T06:36:44;11.80;99.90
15239;DHT22;7722;53.274;9.500;2023-10-31T06:39:11;11.70;99.90
15239;DHT22;7722;53.274;9.500;2023-10-31T06:41:40;11.30;99.90
15239;DHT22;7722;53.274;9.500;2023-10-31T06:44:07;11.50;99.90
15239;DHT22;7722;53.274;9.500;2023-10-31T06:46:34;11.30;99.90
15239;DHT22;7722;53.274;9.500;2023-10-31T06:49:01;11.30;99.90
15239;DHT22;7722;53.274;9.500;2023-10-31T06:51:28;11.30;99.90
15239;DHT22;7722;53.274;9.500;2023-10-31T06:53:55;11.10;99.90
15239;DHT22;7722;53.274;9.500;2023-10-31T06:56:22;11.00;99.90
15239;DHT22;7722;53.274;9.500;2023-10-31T06:58:51;10.80;99.90
15239;DHT22;7722;53.274;9.500;2023-10-31T07:01:18;10.80;99.90
15239;DHT22;7722;53.274;9.500;2023-10-31T07:03:45;10.80;99.90
15239;DHT22;7722;53.274;9.500;2023-10-31T07:06:12;10.70;99.90
15239;DHT22;7722;53.274;9.500;2023-10-31T07:08:39;10.70;99.90
15239;DHT22;7722;53.274;9.500;2023-10-31T07:11:06;10.50;99.90
15239;DHT22;7722;53.274;9.500;2023-10-31T07:13:33;10.50;99.90
15239;DHT22;7722;53.274;9.500;2023-10-31T07:16:01;10.50;99.90
15239;DHT22;7722;53.274;9.500;2023-10-31T07:18:29;10.50;99.90
15239;DHT22;7722;53.274;9.500;2023-10-31T07:20:56;10.30;99.90
15239;DHT22;7722;53.274;9.500;2023-10-31T07:23:23;10.30;99.90
15239;DHT22;7722;53.274;9.500;2023-10-31T07:25:50;10.30;99.90
15239;DHT22;7722;53.274;9.500;2023-10-31T07:28:17;10.40;99.90
15239;DHT22;7722;53.274;9.500;2023-10-31T07:30:44;10.30;99.90
15239;DHT22;7722;53.274;9.500;2023-10-31T07:33:13;10.30;99.90
15239;DHT22;7722;53.274;9.500;2023-10-31T07:35:40;10.30;99.90
15239;DHT22;7722;53.274;9.500;2023-10-31T07:38:07;10.30;99.90
15239;DHT22;7722;53.274;9.500;2023-10-31T07:40:34;10.20;99.90
15239;DHT22;7722;53.274;9.500;2023-10-31T07:43:01;10.20;99.90
15239;DHT22;7722;53.274;9.500;2023-10-31T07:45:28;10.20;99.90
15239;DHT22;7722;53.274;9.500;2023-10-31T07:47:55;10.20;99.90
15239;DHT22;7722;53.274;9.500;2023-10-31T07:50:24;10.10;99.90
15239;DHT22;7722;53.274;9.500;2023-10-31T07:52:51;10.20;99.90
15239;DHT22;7722;53.274;9.500;2023-10-31T07:55:18;10.10;99.90
15239;DHT22;7722;53.274;9.500;2023-10-31T07:57:45;10.10;99.90
15239;DHT22;7722;53.274;9.500;2023-10-31T08:00:13;10.10;99.90
15239;DHT22;7722;53.274;9.500;2023-10-31T08:02:41;10.10;99.90
15239;DHT22;7722;53.274;9.500;2023-10-31T08:05:09;10.00;99.90
15239;DHT22;7722;53.274;9.500;2023-10-31T08:07:38;9.90;99.90
15239;DHT22;7722;53.274;9.500;2023-10-31T08:10:06;9.90;99.90
15239;DHT22;7722;53.274;9.500;2023-10-31T08:12:34;9.90;99.90
15239;DHT22;7722;53.274;9.500;2023-10-31T08:15:01;9.90;99.90
15239;DHT22;7722;53.274;9.500;2023-10-31T08:17:28;9.90;99.90
15239;DHT22;7722;53.274;9.500;2023-10-31T08:19:55;9.90;99.90
15239;DHT22;7722;53.274;9.500;2023-10-31T08:22:22;10.00;99.90
15239;DHT22;7722;53.274;9.500;2023-10-31T08:24:51;9.90;99.90
15239;DHT22;7722;53.274;9.500;2023-10-31T08:27:18;10.00;99.90
15239;DHT22;7722;53.274;9.500;2023-10-31T08:29:45;10.00;99.90
15239;DHT22;7722;53.274;9.500;2023-10-31T08:32:12;10.00;99.90
15239;DHT22;7722;53.274;9.500;2023-10-31T08:34:40;10.00;99.90
15239;DHT22;7722;53.274;9.500;2023-10-31T08:37:07;10.10;99.90
15239;DHT22;7722;53.274;9.500;2023-10-31T08:39:34;10.00;99.90
15239;DHT22;7722;53.274;9.500;2023-10-31T08:42:03;10.10;99.90
15239;DHT22;7722;53.274;9.500;2023-10-31T08:44:31;9.90;99.90
15239;DHT22;7722;53.274;9.500;2023-10-31T08:47:01;9.80;99.90
15239;DHT22;7722;53.274;9.500;2023-10-31T08:49:28;9.90;99.90
15239;DHT22;7722;53.274;9.500;2023-10-31T08:51:55;9.80;99.90
15239;DHT22;7722;53.274;9.500;2023-10-31T08:54:22;9.80;99.90
15239;DHT22;7722;53.274;9.500;2023-10-31T08:56:49;9.80;99.90
15239;DHT22;7722;53.274;9.500;2023-10-31T08:59:18;9.70;99.90
15239;DHT22;7722;53.274;9.500;2023-10-31T09:01:45;9.70;99.90
15239;DHT22;7722;53.274;9.500;2023-10-31T09:04:12;9.70;99.90
15239;DHT22;7722;53.274;9.500;2023-10-31T09:06:40;9.70;99.90
15239;DHT22;7722;53.274;9.500;2023-10-31T09:09:07;9.70;99.90
15239;DHT22;7722;53.274;9.500;2023-10-31T09:11:35;9.70;99.90
15239;DHT22;7722;53.274;9.500;2023-10-31T09:14:03;9.80;99.90
15239;DHT22;7722;53.274;9.500;2023-10-31T09:16:31;9.80;99.90
15239;DHT22;7722;53.274;9.500;2023-10-31T09:18:58;10.00;99.90
15239;DHT22;7722;53.274;9.500;2023-10-31T09:21:26;10.00;99.90
15239;DHT22;7722;53.274;9.500;2023-10-31T09:23:53;9.90;99.90
15239;DHT22;7722;53.274;9.500;2023-10-31T09:26:20;10.00;99.90
15239;DHT22;7722;53.274;9.500;2023-10-31T09:28:47;10.00;99.90
15239;DHT22;7722;53.274;9.500;2023-10-31T09:31:16;10.00;99.90
15239;DHT22;7722;53.274;9.500;2023-10-31T09:33:45;9.90;99.90
15239;DHT22;7722;53.274;9.500;2023-10-31T09:36:12;10.00;99.90
15239;DHT22;7722;53.274;9.500;2023-10-31T09:38:40;10.00;99.90
15239;DHT22;7722;53.274;9.500;2023-10-31T09:41:07;10.00;99.90
15239;DHT22;7722;53.274;9.500;2023-10-31T09:43:34;9.90;99.90
15239;DHT22;7722;53.274;9.500;2023-10-31T09:46:02;9.90;99.90
15239;DHT22;7722;53.274;9.500;2023-10-31T09:48:30;9.90;99.90
15239;DHT22;7722;53.274;9.500;2023-10-31T09:50:59;9.90;99.90
15239;DHT22;7722;53.274;9.500;2023-10-31T09:53:27;9.90;99.90
15239;DHT22;7722;53.274;9.500;2023-10-31T09:55:55;10.00;99.90
15239;DHT22;7722;53.274;9.500;2023-10-31T09:58:23;9.90;99.90
15239;DHT22;7722;53.274;9.500;2023-10-31T10:00:50;9.80;99.90
15239;DHT22;7722;53.274;9.500;2023-10-31T10:03:17;9.80;99.90
15239;DHT22;7722;53.274;9.500;2023-10-31T10:05:44;9.70;99.90
15239;DHT22;7722;53.274;9.500;2023-10-31T10:08:14;9.70;99.90
15239;DHT22;7722;53.274;9.500;2023-10-31T10:10:42;9.70;99.90
15239;DHT22;7722;53.274;9.500;2023-10-31T10:13:10;9.70;99.90
15239;DHT22;7722;53.274;9.500;2023-10-31T10:15:44;9.70;99.90
15239;DHT22;7722;53.274;9.500;2023-10-31T10:18:24;9.80;99.90
15239;DHT22;7722;53.274;9.500;2023-10-31T10:20:55;9.90;99.90
15239;DHT22;7722;53.274;9.500;2023-10-31T10:23:24;9.90;99.90
15239;DHT22;7722;53.274;9.500;2023-10-31T10:25:52;9.80;99.90
15239;DHT22;7722;53.274;9.500;2023-10-31T10:28:20;9.80;99.90
15239;DHT22;7722;53.274;9.500;2023-10-31T10:30:47;9.60;99.90
15239;DHT22;7722;53.274;9.500;2023-10-31T10:33:14;9.60;99.90
15239;DHT22;7722;53.274;9.500;2023-10-31T10:35:42;9.50;99.90
15239;DHT22;7722;53.274;9.500;2023-10-31T10:38:11;9.50;99.90
15239;DHT22;7722;53.274;9.500;2023-10-31T10:40:42;9.40;99.90
15239;DHT22;7722;53.274;9.500;2023-10-31T10:43:12;9.50;99.90
15239;DHT22;7722;53.274;9.500;2023-10-31T10:45:42;9.50;99.90
15239;DHT22;7722;53.274;9.500;2023-10-31T10:48:12;9.40;99.90
15239;DHT22;7722;53.274;9.500;2023-10-31T10:50:42;9.40;99.90
15239;DHT22;7722;53.274;9.500;2023-10-31T10:53:21;9.40;99.90
15239;DHT22;7722;53.274;9.500;2023-10-31T10:55:56;9.50;99.90
15239;DHT22;7722;53.274;9.500;2023-10-31T10:58:30;9.40;99.90
15239;DHT22;7722;53.274;9.500;2023-10-31T11:01:00;9.50;99.90
15239;DHT22;7722;53.274;9.500;2023-10-31T11:03:29;9.50;99.90
15239;DHT22;7722;53.274;9.500;2023-10-31T11:05:57;9.60;99.90
15239;DHT22;7722;53.274;9.500;2023-10-31T11:08:24;9.70;99.90
15239;DHT22;7722;53.274;9.500;2023-10-31T11:10:53;9.80;99.90
15239;DHT22;7722;53.274;9.500;2023-10-31T11:13:22;9.90;99.90
15239;DHT22;7722;53.274;9.500;2023-10-31T11:15:55;9.90;99.90
15239;DHT22;7722;53.274;9.500;2023-10-31T11:18:23;9.90;99.90
15239;DHT22;7722;53.274;9.500;2023-10-31T11:20:52;9.80;99.90
15239;DHT22;7722;53.274;9.500;2023-10-31T11:23:19;9.90;99.90
15239;DHT22;7722;53.274;9.500;2023-10-31T11:25:49;10.00;99.90
15239;DHT22;7722;53.274;9.500;2023-10-31T11:28:20;9.80;99.90
15239;DHT22;7722;53.274;9.500;2023-10-31T11:30:49;9.90;99.90
15239;DHT22;7722;53.274;9.500;2023-10-31T11:33:24;10.00;99.90
15239;DHT22;7722;53.274;9.500;2023-10-31T11:35:51;10.20;99.90
15239;DHT22;7722;53.274;9.500;2023-10-31T11:38:31;10.30;99.90
15239;DHT22;7722;53.274;9.500;2023-10-31T11:41:00;10.40;99.90
15239;DHT22;7722;53.274;9.500;2023-10-31T11:43:53;10.40;99.90
15239;DHT22;7722;53.274;9.500;2023-10-31T11:46:22;10.30;99.90
15239;DHT22;7722;53.274;9.500;2023-10-31T11:48:51;10.30;99.90
15239;DHT22;7722;53.274;9.500;2023-10-31T11:51:18;10.20;99.90
15239;DHT22;7722;53.274;9.500;2023-10-31T11:53:45;10.10;99.90
15239;DHT22;7722;53.274;9.500;2023-10-31T11:56:15;10.10;99.90
15239;DHT22;7722;53.274;9.500;2023-10-31T11:58:42;10.00;99.90
15239;DHT22;7722;53.274;9.500;2023-10-31T12:01:11;9.80;99.90
15239;DHT22;7722;53.274;9.500;2023-10-31T12:03:39;9.90;99.90
15239;DHT22;7722;53.274;9.500;2023-10-31T12:06:08;9.90;99.90
15239;DHT22;7722;53.274;9.500;2023-10-31T12:08:37;10.00;99.90
15239;DHT22;7722;53.274;9.500;2023-10-31T12:11:08;10.10;99.90
15239;DHT22;7722;53.274;9.500;2023-10-31T12:13:37;10.10;99.90
15239;DHT22;7722;53.274;9.500;2023-10-31T12:16:05;10.20;99.90
15239;DHT22;7722;53.274;9.500;2023-10-31T12:18:34;10.50;99.90
15239;DHT22;7722;53.274;9.500;2023-10-31T12:21:02;10.80;99.90
15239;DHT22;7722;53.274;9.500;2023-10-31T12:23:29;10.70;99.90
15239;DHT22;7722;53.274;9.500;2023-10-31T12:25:56;10.80;99.90
15239;DHT22;7722;53.274;9.500;2023-10-31T12:28:24;11.00;99.90
15239;DHT22;7722;53.274;9.500;2023-10-31T12:30:52;11.00;99.90
15239;DHT22;7722;53.274;9.500;2023-10-31T12:33:21;11.20;99.90
15239;DHT22;7722;53.274;9.500;2023-10-31T12:35:54;11.20;99.90
15239;DHT22;7722;53.274;9.500;2023-10-31T12:38:22;11.20;99.90
15239;DHT22;7722;53.274;9.500;2023-10-31T12:40:50;11.30;99.90
15239;DHT22;7722;53.274;9.500;2023-10-31T12:43:18;11.20;99.90
15239;DHT22;7722;53.274;9.500;2023-10-31T12:45:45;11.40;99.90
15239;DHT22;7722;53.274;9.500;2023-10-31T12:48:12;11.50;99.90
15239;DHT22;7722;53.274;9.500;2023-10-31T12:50:39;11.60;99.90
15239;DHT22;7722;53.274;9.500;2023-10-31T12:53:08;11.80;99.90
15239;DHT22;7722;53.274;9.500;2023-10-31T12:55:39;11.70;99.90
15239;DHT22;7722;53.274;9.500;2023-10-31T12:58:06;11.80;99.90
15239;DHT22;7722;53.274;9.500;2023-10-31T13:00:36;11.60;99.90
15239;DHT22;7722;53.274;9.500;2023-10-31T13:03:05;11.70;99.90
15239;DHT22;7722;53.274;9.500;2023-10-31T13:05:34;11.60;99.90
15239;DHT22;7722;53.274;9.500;2023-10-31T13:08:01;11.60;99.90
15239;DHT22;7722;53.274;9.500;2023-10-31T13:10:33;11.60;99.90
15239;DHT22;7722;53.274;9.500;2023-10-31T13:13:00;11.60;99.90
15239;DHT22;7722;53.274;9.500;2023-10-31T13:15:27;11.50;99.90
15239;DHT22;7722;53.274;9.500;2023-10-31T13:17:55;11.50;99.90
15239;DHT22;7722;53.274;9.500;2023-10-31T13:20:23;11.40;99.90
15239;DHT22;7722;53.274;9.500;2023-10-31T13:22:50;11.30;99.90
15239;DHT22;7722;53.274;9.500;2023-10-31T13:25:17;11.30;99.90
15239;DHT22;7722;53.274;9.500;2023-10-31T13:27:46;11.30;99.90
15239;DHT22;7722;53.274;9.500;2023-10-31T13:30:17;11.30;99.90
15239;DHT22;7722;53.274;9.500;2023-10-31T13:32:44;11.10;99.90
15239;DHT22;7722;53.274;9.500;2023-10-31T13:35:12;10.90;99.90
15239;DHT22;7722;53.274;9.500;2023-10-31T13:37:40;10.90;99.90
15239;DHT22;7722;53.274;9.500;2023-10-31T13:40:08;10.70;99.90
15239;DHT22;7722;53.274;9.500;2023-10-31T13:42:35;10.30;99.90
15239;DHT22;7722;53.274;9.500;2023-10-31T13:45:04;10.00;99.90
15239;DHT22;7722;53.274;9.500;2023-10-31T13:47:31;9.80;99.90
15239;DHT22;7722;53.274;9.500;2023-10-31T13:49:58;9.70;99.90
15239;DHT22;7722;53.274;9.500;2023-10-31T13:52:24;9.40;99.90
15239;DHT22;7722;53.274;9.500;2023-10-31T13:54:52;9.40;99.90
15239;DHT22;7722;53.274;9.500;2023-10-31T13:57:19;9.30;99.90
15239;DHT22;7722;53.274;9.500;2023-10-31T13:59:46;9.10;99.90
15239;DHT22;7722;53.274;9.500;2023-10-31T14:02:14;9.00;99.90
15239;DHT22;7722;53.274;9.500;2023-10-31T14:04:43;8.80;99.90
15239;DHT22;7722;53.274;9.500;2023-10-31T14:07:12;8.90;99.90
15239;DHT22;7722;53.274;9.500;2023-10-31T14:09:41;8.80;99.90
15239;DHT22;7722;53.274;9.500;2023-10-31T14:12:09;8.70;99.90
15239;DHT22;7722;53.274;9.500;2023-10-31T14:14:36;8.60;99.90
15239;DHT22;7722;53.274;9.500;2023-10-31T14:17:03;8.60;99.90
15239;DHT22;7722;53.274;9.500;2023-10-31T14:19:32;8.50;99.90
15239;DHT22;7722;53.274;9.500;2023-10-31T14:21:59;8.40;99.90
15239;DHT22;7722;53.274;9.500;2023-10-31T14:24:26;8.30;99.90
15239;DHT22;7722;53.274;9.500;2023-10-31T14:26:54;8.30;99.90
15239;DHT22;7722;53.274;9.500;2023-10-31T14:29:21;8.20;99.90
15239;DHT22;7722;53.274;9.500;2023-10-31T14:31:48;8.30;99.90
15239;DHT22;7722;53.274;9.500;2023-10-31T14:34:15;8.30;99.90
15239;DHT22;7722;53.274;9.500;2023-10-31T14:36:44;8.10;99.90
15239;DHT22;7722;53.274;9.500;2023-10-31T14:39:11;8.10;99.90
15239;DHT22;7722;53.274;9.500;2023-10-31T14:41:38;8.10;99.90
15239;DHT22;7722;53.274;9.500;2023-10-31T14:44:06;8.00;99.90
15239;DHT22;7722;53.274;9.500;2023-10-31T14:46:34;8.00;99.90
15239;DHT22;7722;53.274;9.500;2023-10-31T14:49:01;8.10;99.90
15239;DHT22;7722;53.274;9.500;2023-10-31T14:51:28;7.90;99.90
15239;DHT22;7722;53.274;9.500;2023-10-31T14:53:56;7.90;99.90
15239;DHT22;7722;53.274;9.500;2023-10-31T14:56:25;7.90;99.90
15239;DHT22;7722;53.274;9.500;2023-10-31T14:58:55;7.90;99.90
15239;DHT22;7722;53.274;9.500;2023-10-31T15:01:22;7.90;99.90
15239;DHT22;7722;53.274;9.500;2023-10-31T15:03:49;7.70;99.90
15239;DHT22;7722;53.274;9.500;2023-10-31T15:06:18;7.70;99.90
15239;DHT22;7722;53.274;9.500;2023-10-31T15:08:45;7.70;99.90
15239;DHT22;7722;53.274;9.500;2023-10-31T15:11:13;7.70;99.90
15239;DHT22;7722;53.274;9.500;2023-10-31T15:13:41;7.70;99.90
15239;DHT22;7722;53.274;9.500;2023-10-31T15:16:08;7.60;99.90
15239;DHT22;7722;53.274;9.500;2023-10-31T15:18:35;7.50;99.90
15239;DHT22;7722;53.274;9.500;2023-10-31T15:21:03;7.50;99.90
15239;DHT22;7722;53.274;9.500;2023-10-31T15:23:30;7.60;99.90
15239;DHT22;7722;53.274;9.500;2023-10-31T15:25:58;7.40;99.90
15239;DHT22;7722;53.274;9.500;2023-10-31T15:28:27;7.40;99.90
15239;DHT22;7722;53.274;9.500;2023-10-31T15:30:55;7.20;99.90
15239;DHT22;7722;53.274;9.500;2023-10-31T15:33:22;7.10;99.90
15239;DHT22;7722;53.274;9.500;2023-10-31T15:35:49;7.10;99.90
15239;DHT22;7722;53.274;9.500;2023-10-31T15:38:16;7.00;99.90
15239;DHT22;7722;53.274;9.500;2023-10-31T15:40:44;6.90;99.90
15239;DHT22;7722;53.274;9.500;2023-10-31T15:43:11;6.90;99.90
15239;DHT22;7722;53.274;9.500;2023-10-31T15:45:40;6.80;99.90
15239;DHT22;7722;53.274;9.500;2023-10-31T15:48:36;6.70;99.90
15239;DHT22;7722;53.274;9.500;2023-10-31T15:51:10;6.80;99.90
15239;DHT22;7722;53.274;9.500;2023-10-31T15:53:37;6.70;99.90